Time;durP1;ratioP1;P1;durP2;ratioP2;P2;SDS_P1;SDS_P2;PMS_P1;PMS_P2;Temp;Humidity;BMP_temperature;BMP_pressure;BME280_temperature;BME280_humidity;BME280_pressure;Samples;Min_cycle;Max_cycle;Signal;HPM_P1;HPM_P2
2022/01/05 00:00:07;;;;;;;15.20;3.17;;;;;;;;;;5093927;28;20024;-71
2022/01/05 00:02:33;;;;;;;7.38;2.40;;;;;;;;;;5093827;28;20024;-72
2022/01/05 00:04:59;;;;;;;10.60;2.70;;;;;;;;;;5093750;28;20058;-72
2022/01/05 00:07:25;;;;;;;11.20;2.80;;;;;;;;;;5094965;28;20028;-71
2022/01/05 00:09:50;;;;;;;16.23;3.03;;;;;;;;;;5093487;28;20123;-72
2022/01/05 00:12:16;;;;;;;14.25;3.65;;;;;;;;;;5094703;28;20024;-72
2022/01/05 00:14:42;;;;;;;12.00;3.83;;;;;;;;;;5076454;28;20028;-72
2022/01/05 00:17:08;;;;;;;9.48;3.42;;;;;;;;;;5093586;28;20095;-71
2022/01/05 00:19:34;;;;;;;13.75;3.33;;;;;;;;;;5076336;28;20115;-72
2022/01/05 00:22:02;;;;;;;9.95;3.13;;;;;;;;;;5076572;28;20020;-71
2022/01/05 00:24:28;;;;;;;14.20;3.55;;;;;;;;;;5093052;28;20031;-72
2022/01/05 00:26:54;;;;;;;10.55;3.55;;;;;;;;;;5093058;28;20447;-72
2022/01/05 00:29:20;;;;;;;16.67;3.65;;;;;;;;;;5094536;28;20032;-72
2022/01/05 00:31:46;;;;;;;13.95;3.20;;;;;;;;;;5094547;28;20377;-72
2022/01/05 00:34:13;;;;;;;11.18;3.90;;;;;;;;;;5094392;28;20450;-72
2022/01/05 00:36:39;;;;;;;14.30;3.17;;;;;;;;;;5092884;28;20546;-72
2022/01/05 00:39:05;;;;;;;11.77;2.80;;;;;;;;;;5094422;28;20461;-71
2022/01/05 00:41:31;;;;;;;16.73;3.20;;;;;;;;;;5094299;28;20024;-72
2022/01/05 00:43:57;;;;;;;18.60;3.30;;;;;;;;;;5094361;28;20036;-71
2022/01/05 00:46:23;;;;;;;17.50;3.42;;;;;;;;;;5093121;28;20054;-71
2022/01/05 00:48:49;;;;;;;14.23;3.65;;;;;;;;;;5094616;28;20052;-72
2022/01/05 00:51:15;;;;;;;17.83;3.35;;;;;;;;;;5094201;28;20059;-72
2022/01/05 00:53:42;;;;;;;13.82;3.25;;;;;;;;;;5092940;28;20465;-71
2022/01/05 00:56:08;;;;;;;12.18;3.15;;;;;;;;;;5092588;28;20028;-71
2022/01/05 00:58:34;;;;;;;12.65;3.53;;;;;;;;;;5092933;28;20059;-70
2022/01/05 01:01:00;;;;;;;12.68;3.53;;;;;;;;;;5094114;28;20066;-72
2022/01/05 01:03:28;;;;;;;15.57;3.40;;;;;;;;;;5094416;28;20132;-72
2022/01/05 01:05:54;;;;;;;13.50;3.33;;;;;;;;;;5094317;28;20093;-72
2022/01/05 01:08:20;;;;;;;10.05;3.30;;;;;;;;;;5094026;28;20024;-70
2022/01/05 01:10:46;;;;;;;17.35;3.10;;;;;;;;;;5092780;28;20028;-71
2022/01/05 01:13:16;;;;;;;9.95;2.60;;;;;;;;;;5093535;28;20036;-71
2022/01/05 01:15:42;;;;;;;11.07;3.03;;;;;;;;;;5093945;28;20016;-71
2022/01/05 01:18:08;;;;;;;14.40;3.30;;;;;;;;;;5093931;28;20036;-71
2022/01/05 01:20:34;;;;;;;20.70;4.32;;;;;;;;;;5093873;28;20028;-71
2022/01/05 01:23:00;;;;;;;15.60;2.92;;;;;;;;;;5092280;28;20035;-71
2022/01/05 01:25:26;;;;;;;13.90;3.30;;;;;;;;;;5092259;28;20070;-71
2022/01/05 01:27:52;;;;;;;13.43;3.72;;;;;;;;;;5092276;28;20075;-71
2022/01/05 01:30:18;;;;;;;16.08;3.50;;;;;;;;;;5092252;28;20028;-71
2022/01/05 01:32:44;;;;;;;16.48;3.20;;;;;;;;;;5075337;28;20080;-71
2022/01/05 01:35:10;;;;;;;14.82;3.53;;;;;;;;;;5095482;28;20040;-71
2022/01/05 01:37:36;;;;;;;12.43;3.38;;;;;;;;;;5097831;28;20461;-71
2022/01/05 01:40:03;;;;;;;15.38;3.75;;;;;;;;;;5096610;28;20033;-71
2022/01/05 01:42:29;;;;;;;16.02;3.60;;;;;;;;;;5096564;28;20031;-71
2022/01/05 01:44:55;;;;;;;17.92;3.03;;;;;;;;;;5096512;28;20466;-71
2022/01/05 01:47:21;;;;;;;9.82;2.38;;;;;;;;;;5097680;28;20073;-71
2022/01/05 01:49:47;;;;;;;17.88;3.53;;;;;;;;;;5097592;28;20017;-71
2022/01/05 01:52:13;;;;;;;13.55;3.55;;;;;;;;;;5097537;28;20020;-71
2022/01/05 01:54:39;;;;;;;14.45;3.03;;;;;;;;;;5097438;28;20036;-72
2022/01/05 01:57:06;;;;;;;12.50;2.50;;;;;;;;;;5079103;28;20031;-71
2022/01/05 01:59:32;;;;;;;18.13;2.92;;;;;;;;;;5095868;28;20522;-71
2022/01/05 02:01:58;;;;;;;21.38;3.72;;;;;;;;;;5097375;28;20055;-71
2022/01/05 02:04:24;;;;;;;14.70;2.95;;;;;;;;;;5097333;28;20063;-71
2022/01/05 02:06:51;;;;;;;13.52;3.00;;;;;;;;;;5097001;28;20054;-71
2022/01/05 02:09:17;;;;;;;12.88;3.40;;;;;;;;;;5096043;28;20020;-71
2022/01/05 02:11:43;;;;;;;17.58;3.40;;;;;;;;;;5095966;28;20047;-71
2022/01/05 02:14:09;;;;;;;20.35;4.00;;;;;;;;;;5078643;28;20090;-71
2022/01/05 02:16:40;;;;;;;15.23;3.83;;;;;;;;;;5097081;28;20024;-70
2022/01/05 02:19:06;;;;;;;13.23;3.60;;;;;;;;;;5079884;28;20050;-71
2022/01/05 02:21:34;;;;;;;19.35;3.60;;;;;;;;;;5096107;28;20028;-71
2022/01/05 02:24:00;;;;;;;16.23;4.13;;;;;;;;;;5096935;28;20457;-71
2022/01/05 02:26:26;;;;;;;21.70;3.65;;;;;;;;;;5096893;28;20465;-70
2022/01/05 02:28:52;;;;;;;18.63;3.60;;;;;;;;;;5095322;28;20047;-71
2022/01/05 02:31:18;;;;;;;17.92;3.67;;;;;;;;;;5096799;28;20101;-71
2022/01/05 02:33:45;;;;;;;19.63;3.67;;;;;;;;;;5095119;28;20473;-71
2022/01/05 02:36:15;;;;;;;17.05;4.32;;;;;;;;;;5095515;28;20016;-71
2022/01/05 02:38:41;;;;;;;17.45;4.65;;;;;;;;;;5078871;28;20378;-71
2022/01/05 02:41:08;;;;;;;15.63;3.92;;;;;;;;;;5096601;28;20099;-71
2022/01/05 02:43:35;;;;;;;14.15;3.80;;;;;;;;;;5094998;28;20020;-70
2022/01/05 02:46:01;;;;;;;25.70;4.03;;;;;;;;;;5095049;28;20020;-71
2022/01/05 02:48:27;;;;;;;17.60;4.80;;;;;;;;;;5095293;28;20028;-71
2022/01/05 02:50:57;;;;;;;16.02;4.03;;;;;;;;;;5094906;28;20392;-71
2022/01/05 02:53:23;;;;;;;18.33;5.30;;;;;;;;;;5094761;28;20039;-71
2022/01/05 02:55:49;;;;;;;15.60;4.30;;;;;;;;;;5096619;28;20481;-71
2022/01/05 02:58:15;;;;;;;14.10;4.25;;;;;;;;;;5094758;28;20028;-71
2022/01/05 03:00:41;;;;;;;20.88;4.40;;;;;;;;;;5096282;28;20132;-71
2022/01/05 03:03:07;;;;;;;23.48;4.40;;;;;;;;;;5077885;28;20035;-71
2022/01/05 03:05:33;;;;;;;15.77;4.57;;;;;;;;;;5095441;28;20055;-71
2022/01/05 03:07:59;;;;;;;13.88;4.20;;;;;;;;;;5096149;28;20020;-71
2022/01/05 03:10:25;;;;;;;21.13;3.95;;;;;;;;;;5096073;28;20024;-70
2022/01/05 03:12:51;;;;;;;22.83;4.13;;;;;;;;;;5077458;28;20047;-71
2022/01/05 03:15:17;;;;;;;14.68;3.95;;;;;;;;;;5095211;28;20373;-70
2022/01/05 03:17:43;;;;;;;9.38;4.13;;;;;;;;;;5094752;28;20032;-70
2022/01/05 03:20:10;;;;;;;17.25;3.95;;;;;;;;;;5095872;28;20030;-70
2022/01/05 03:22:37;;;;;;;14.60;3.20;;;;;;;;;;5094635;28;20048;-70
2022/01/05 03:25:03;;;;;;;16.20;3.67;;;;;;;;;;5094608;28;20430;-71
2022/01/05 03:27:29;;;;;;;18.58;4.65;;;;;;;;;;5095723;28;20024;-70
2022/01/05 03:29:55;;;;;;;18.25;3.95;;;;;;;;;;5095661;28;20020;-71
2022/01/05 03:32:22;;;;;;;21.92;4.35;;;;;;;;;;5095618;28;20032;-71
2022/01/05 03:34:51;;;;;;;18.55;4.72;;;;;;;;;;5095520;28;20028;-71
2022/01/05 03:37:17;;;;;;;18.08;4.55;;;;;;;;;;5094816;28;20020;-71
2022/01/05 03:39:42;;;;;;;18.45;3.72;;;2.50;99.90;;;;;;5093930;28;20089;-70
2022/01/05 03:42:08;;;;;;;16.35;4.25;;;2.60;99.90;;;;;;5077058;28;20057;-71
2022/01/05 03:44:34;;;;;;;21.35;4.65;;;2.60;99.90;;;;;;5077045;28;20528;-70
2022/01/05 03:47:00;;;;;;;13.10;3.40;;;2.60;99.90;;;;;;5094166;28;20020;-71
2022/01/05 03:49:26;;;;;;;16.73;3.58;;;2.50;99.90;;;;;;5094101;28;20028;-70
2022/01/05 03:51:51;;;;;;;13.80;3.85;;;2.50;99.90;;;;;;5093710;28;20028;-71
2022/01/05 03:54:17;;;;;;;16.50;3.83;;;2.50;99.90;;;;;;5094199;28;20028;-70
2022/01/05 03:56:42;;;;;;;14.20;3.42;;;2.50;99.90;;;;;;5094764;28;20028;-70
2022/01/05 03:59:08;;;;;;;13.18;4.15;;;2.50;99.90;;;;;;5093059;28;20362;-71
2022/01/05 04:01:33;;;;;;;18.27;4.07;;;2.40;99.90;;;;;;5095317;28;20092;-70
2022/01/05 04:03:59;;;;;;;16.52;3.88;;;2.50;99.90;;;;;;5095178;28;20365;-71
2022/01/05 04:06:24;;;;;;;20.13;4.68;;;2.50;99.90;;;;;;5076787;28;20024;-71
2022/01/05 04:08:50;;;;;;;19.92;4.18;;;2.50;99.90;;;;;;5095195;28;20115;-71
2022/01/05 04:11:16;;;;;;;16.58;4.80;;;2.50;99.90;;;;;;5076457;28;20031;-71
2022/01/05 04:13:41;;;;;;;19.80;5.18;;;2.40;99.90;;;;;;5094383;28;20044;-70
2022/01/05 04:16:08;;;;;;;19.42;4.88;;;2.50;99.90;;;;;;5094474;28;20032;-71
2022/01/05 04:18:33;;;;;;;22.75;5.03;;;2.40;99.90;;;;;;5094670;28;20024;-70
2022/01/05 04:20:59;;;;;;;16.95;5.10;;;2.50;99.90;;;;;;5093278;28;20024;-70
2022/01/05 04:23:24;;;;;;;23.10;5.15;;;2.50;99.90;;;;;;5093065;28;20036;-71
2022/01/05 04:25:50;;;;;;;20.13;5.50;;;2.50;99.90;;;;;;5094863;28;20065;-71
2022/01/05 04:28:15;;;;;;;22.17;5.45;;;2.40;99.90;;;;;;5093376;28;20096;-71
2022/01/05 04:30:41;;;;;;;19.08;5.05;;;2.50;99.90;;;;;;5093362;28;20441;-71
2022/01/05 04:33:07;;;;;;;23.90;5.88;;;2.40;99.90;;;;;;5092871;28;20492;-71
2022/01/05 04:35:32;;;;;;;16.95;6.15;;;2.40;99.90;;;;;;5093581;28;20024;-71
2022/01/05 04:37:58;;;;;;;18.45;5.57;;;2.40;99.90;;;;;;5094099;28;20047;-70
2022/01/05 04:40:23;;;;;;;21.10;6.10;;;2.50;99.90;;;;;;5092817;28;20024;-71
2022/01/05 04:42:49;;;;;;;19.52;6.00;;;2.50;99.90;;;;;;5075973;28;20024;-70
2022/01/05 04:45:14;;;;;;;26.75;5.80;;;2.40;99.90;;;;;;5093113;28;20035;-70
2022/01/05 04:47:40;;;;;;;22.25;5.93;;;2.40;99.90;;;;;;5092716;28;20020;-70
2022/01/05 04:50:06;;;;;;;21.88;5.65;;;2.40;99.90;;;;;;5094477;28;20465;-71
2022/01/05 04:52:32;;;;;;;20.65;5.43;;;2.40;99.90;;;;;;5093254;28;20044;-70
2022/01/05 04:54:57;;;;;;;25.45;6.00;;;2.40;99.90;;;;;;5092905;28;20071;-71
2022/01/05 04:57:23;;;;;;;27.23;6.03;;;2.30;99.90;;;;;;5092580;28;20028;-71
2022/01/05 04:59:48;;;;;;;33.10;6.07;;;2.30;99.90;;;;;;5094356;28;20024;-70
2022/01/05 05:02:15;;;;;;;17.48;5.32;;;2.30;99.90;;;;;;5092580;28;20024;-70
2022/01/05 05:04:41;;;;;;;20.25;5.93;;;2.30;99.90;;;;;;5094061;28;20019;-70
2022/01/05 05:07:07;;;;;;;18.40;6.28;;;2.30;99.90;;;;;;5092453;28;20081;-71
2022/01/05 05:09:33;;;;;;;22.98;4.88;;;2.20;99.90;;;;;;5094067;28;20535;-72
2022/01/05 05:11:58;;;;;;;23.33;5.10;;;2.30;99.90;;;;;;5075646;28;20077;-70
2022/01/05 05:14:24;;;;;;;19.48;4.97;;;2.30;99.90;;;;;;5092081;28;20119;-70
2022/01/05 05:16:50;;;;;;;18.55;5.70;;;2.30;99.90;;;;;;5075536;28;20020;-71
2022/01/05 05:19:15;;;;;;;28.48;5.82;;;2.20;99.90;;;;;;5094152;28;20081;-71
2022/01/05 05:21:41;;;;;;;23.25;5.60;;;2.20;99.90;;;;;;5075514;28;20123;-71
2022/01/05 05:24:06;;;;;;;19.90;5.35;;;2.10;99.90;;;;;;5093229;28;20527;-71
2022/01/05 05:26:33;;;;;;;19.60;5.35;;;2.20;99.90;;;;;;5092971;28;20035;-71
2022/01/05 05:28:58;;;;;;;25.65;5.78;;;2.20;99.90;;;;;;5094028;28;20073;-70
2022/01/05 05:31:24;;;;;;;30.42;5.82;;;2.20;99.90;;;;;;5093474;28;20028;-71
2022/01/05 05:33:49;;;;;;;16.35;5.15;;;2.30;99.90;;;;;;5076171;28;20032;-70
2022/01/05 05:36:15;;;;;;;30.58;6.53;;;2.40;99.90;;;;;;5093703;28;20480;-71
2022/01/05 05:38:41;;;;;;;20.75;5.88;;;2.40;99.90;;;;;;5092552;28;20066;-71
2022/01/05 05:41:06;;;;;;;23.48;5.45;;;2.40;99.90;;;;;;5092497;28;20028;-71
2022/01/05 05:43:32;;;;;;;20.55;4.85;;;2.40;99.90;;;;;;5092094;28;20024;-71
2022/01/05 05:45:57;;;;;;;16.42;5.80;;;2.30;99.90;;;;;;5075790;28;20472;-71
2022/01/05 05:48:23;;;;;;;23.60;5.30;;;2.30;99.90;;;;;;5092390;28;20055;-71
2022/01/05 05:50:49;;;;;;;24.52;5.43;;;2.30;99.90;;;;;;5093862;28;20077;-71
2022/01/05 05:53:15;;;;;;;17.17;5.28;;;2.20;99.90;;;;;;5091839;28;20123;-70
2022/01/05 05:55:40;;;;;;;26.30;5.32;;;2.20;99.90;;;;;;5093777;28;20019;-71
2022/01/05 05:58:06;;;;;;;21.55;5.15;;;2.30;99.90;;;;;;5093791;28;20020;-70
2022/01/05 06:00:32;;;;;;;21.85;5.90;;;2.30;99.90;;;;;;5075174;28;20024;-72
2022/01/05 06:02:59;;;;;;;20.85;5.38;;;2.20;99.90;;;;;;5092176;28;20028;-72
2022/01/05 06:05:30;;;;;;;21.23;5.40;;;2.10;99.90;;;;;;5093722;28;20040;-71
2022/01/05 06:07:55;;;;;;;19.13;5.20;;;2.10;99.90;;;;;;5092220;28;20026;-71
2022/01/05 06:10:21;;;;;;;17.95;5.45;;;2.20;99.90;;;;;;5093382;28;20024;-71
2022/01/05 06:12:47;;;;;;;23.15;6.18;;;2.10;99.90;;;;;;5093269;28;20392;-71
2022/01/05 06:15:13;;;;;;;22.73;5.78;;;2.10;99.90;;;;;;5093370;28;20020;-71
2022/01/05 06:17:38;;;;;;;23.17;6.03;;;2.10;99.90;;;;;;5092422;28;20074;-71
2022/01/05 06:20:05;;;;;;;23.80;4.80;;;2.20;99.90;;;;;;5074964;28;20020;-71
2022/01/05 06:22:31;;;;;;;20.65;5.45;;;2.20;99.90;;;;;;5078604;28;20539;-71
2022/01/05 06:24:57;;;;;;;23.35;4.28;;;2.20;99.90;;;;;;5097152;28;20154;-71
2022/01/05 06:27:22;;;;;;;21.45;4.45;;;2.20;99.90;;;;;;5079387;28;20069;-71
2022/01/05 06:29:48;;;;;;;17.83;4.32;;;2.20;99.90;;;;;;5095650;28;20357;-71
2022/01/05 06:32:14;;;;;;;13.82;3.58;;;2.20;99.90;;;;;;5096783;28;20481;-71
2022/01/05 06:34:39;;;;;;;24.25;5.07;;;2.20;99.90;;;;;;5095083;28;20024;-72
2022/01/05 06:37:05;;;;;;;16.00;3.97;;;2.30;99.90;;;;;;5095120;28;20057;-71
2022/01/05 06:39:31;;;;;;;23.52;8.10;;;2.30;99.90;;;;;;5096914;28;20028;-71
2022/01/05 06:41:56;;;;;;;28.25;7.85;;;2.30;99.90;;;;;;5095059;28;20067;-71
2022/01/05 06:44:22;;;;;;;18.25;6.20;;;2.30;99.90;;;;;;5095169;28;20028;-71
2022/01/05 06:46:48;;;;;;;19.02;7.65;;;2.30;99.90;;;;;;5096519;28;20529;-72
2022/01/05 06:49:13;;;;;;;26.80;5.85;;;2.30;99.90;;;;;;5078004;28;20028;-71
2022/01/05 06:51:39;;;;;;;28.88;5.88;;;2.40;99.90;;;;;;5078053;28;20024;-72
2022/01/05 06:54:04;;;;;;;21.83;5.28;;;2.40;99.90;;;;;;5077921;28;20027;-71
2022/01/05 06:56:30;;;;;;;22.20;6.20;;;2.40;99.90;;;;;;5096113;28;20020;-71
2022/01/05 06:58:55;;;;;;;18.95;5.80;;;2.40;99.90;;;;;;5096032;28;20031;-70
2022/01/05 07:01:21;;;;;;;26.65;5.70;;;2.50;99.90;;;;;;5096409;28;20024;-71
2022/01/05 07:03:46;;;;;;;23.25;5.30;;;2.50;99.90;;;;;;5095606;28;20024;-71
2022/01/05 07:06:12;;;;;;;28.98;5.80;;;2.50;99.90;;;;;;5095127;28;20103;-72
2022/01/05 07:08:37;;;;;;;26.45;6.00;;;2.50;99.90;;;;;;5096448;28;20377;-70
2022/01/05 07:11:03;;;;;;;22.65;6.05;;;2.50;99.90;;;;;;5094520;28;20438;-71
2022/01/05 07:13:29;;;;;;;23.67;5.25;;;2.50;99.90;;;;;;5095848;28;20124;-72
2022/01/05 07:15:54;;;;;;;16.42;5.15;;;2.50;99.90;;;;;;5094884;28;20024;-72
2022/01/05 07:18:20;;;;;;;21.63;5.70;;;2.60;99.90;;;;;;5094895;28;20530;-72
2022/01/05 07:20:45;;;;;;;20.85;4.88;;;2.60;99.90;;;;;;5077642;28;20217;-71
2022/01/05 07:23:11;;;;;;;18.88;5.63;;;2.60;99.90;;;;;;5077445;28;20020;-72
2022/01/05 07:25:37;;;;;;;19.83;5.65;;;2.60;99.90;;;;;;5077271;28;20028;-71
2022/01/05 07:28:03;;;;;;;20.38;4.95;;;2.60;99.90;;;;;;5094343;28;20031;-66
2022/01/05 07:30:28;;;;;;;20.20;5.28;;;2.60;99.90;;;;;;5095910;28;20024;-66
2022/01/05 07:32:54;;;;;;;25.33;5.80;;;2.50;99.90;;;;;;5096062;28;20099;-64
2022/01/05 07:35:19;;;;;;;24.08;6.10;;;2.50;99.90;;;;;;5093596;28;20058;-66
2022/01/05 07:37:45;;;;;;;23.08;6.65;;;2.50;99.90;;;;;;5094050;28;20353;-66
2022/01/05 07:40:11;;;;;;;19.27;5.70;;;2.60;99.90;;;;;;5094549;28;20031;-66
2022/01/05 07:42:38;;;;;;;18.30;5.60;;;2.60;99.90;;;;;;5095399;28;20032;-66
2022/01/05 07:45:06;;;;;;;27.95;6.97;;;2.60;99.90;;;;;;5095976;28;20057;-67
2022/01/05 07:47:32;;;;;;;22.85;6.45;;;2.70;99.90;;;;;;5086710;28;20085;-66
2022/01/05 07:49:57;;;;;;;25.15;6.47;;;2.70;99.90;;;;;;5093779;28;20023;-65
2022/01/05 07:52:23;;;;;;;26.77;7.80;;;2.70;99.90;;;;;;5098312;28;20465;-66
2022/01/05 07:54:50;;;;;;;16.55;6.75;;;2.70;99.90;;;;;;5093338;28;20028;-66
2022/01/05 07:57:16;;;;;;;21.05;7.35;;;2.80;99.90;;;;;;5093610;28;20024;-66
2022/01/05 07:59:41;;;;;;;31.15;7.53;;;2.80;99.90;;;;;;5076585;28;20469;-66
2022/01/05 08:02:07;;;;;;;22.52;6.85;;;2.90;99.90;;;;;;5095001;28;20032;-67
2022/01/05 08:04:32;;;;;;;27.77;8.32;;;2.90;99.90;;;;;;5087910;28;20020;-66
2022/01/05 08:06:58;;;;;;;25.58;7.68;;;2.90;99.90;;;;;;5103814;28;20034;-65
2022/01/05 08:09:23;;;;;;;24.55;6.88;;;2.90;99.90;;;;;;5093206;28;20114;-65
2022/01/05 08:11:49;;;;;;;26.65;10.43;;;2.80;99.90;;;;;;5094100;28;20111;-66
2022/01/05 08:14:14;;;;;;;26.63;7.63;;;2.80;99.90;;;;;;5076037;28;20051;-66
2022/01/05 08:16:40;;;;;;;29.05;9.15;;;2.90;99.90;;;;;;5093441;28;20031;-67
2022/01/05 08:19:06;;;;;;;23.42;8.30;;;2.90;99.90;;;;;;5093114;28;20024;-67
2022/01/05 08:21:31;;;;;;;24.02;7.43;;;3.00;99.90;;;;;;5095388;28;20046;-67
2022/01/05 08:23:57;;;;;;;28.80;8.00;;;3.10;99.90;;;;;;5105448;28;20024;-66
2022/01/05 08:26:23;;;;;;;29.10;7.30;;;3.20;99.90;;;;;;5107698;28;20254;-66
2022/01/05 08:28:48;;;;;;;19.05;6.75;;;3.30;99.90;;;;;;5100992;28;20119;-67
2022/01/05 08:31:14;;;;;;;23.90;6.60;;;3.40;99.90;;;;;;5101135;28;20032;-67
2022/01/05 08:33:39;;;;;;;26.52;7.65;;;3.60;99.90;;;;;;5092410;28;20512;-67
2022/01/05 08:36:05;;;;;;;28.33;7.80;;;3.60;99.90;;;;;;5100938;28;20020;-66
2022/01/05 08:38:32;;;;;;;27.52;7.95;;;3.60;99.90;;;;;;5096919;28;20024;-66
2022/01/05 08:40:57;;;;;;;19.05;6.75;;;3.50;99.90;;;;;;5099793;28;20418;-66
2022/01/05 08:43:23;;;;;;;24.15;6.60;;;3.40;99.90;;;;;;5092536;28;20032;-66
2022/01/05 08:45:49;;;;;;;23.92;6.47;;;3.40;99.90;;;;;;5093989;28;20355;-66
2022/01/05 08:48:15;;;;;;;22.27;7.03;;;3.30;99.90;;;;;;5095149;28;20084;-66
2022/01/05 08:50:41;;;;;;;28.20;7.72;;;3.30;99.90;;;;;;5092234;28;20060;-66
2022/01/05 08:53:07;;;;;;;21.83;6.80;;;3.30;99.90;;;;;;5079661;28;20024;-66
2022/01/05 08:55:40;;;;;;;19.33;7.00;;;3.30;99.90;;;;;;5095600;28;20095;-67
2022/01/05 08:58:06;;;;;;;29.23;8.90;;;3.30;99.90;;;;;;5063429;28;20111;-66
2022/01/05 09:00:32;;;;;;;28.83;9.73;;;3.30;99.90;;;;;;5092239;28;20038;-66
2022/01/05 09:02:59;;;;;;;22.67;8.98;;;3.30;99.90;;;;;;5093579;28;20094;-66
2022/01/05 09:05:25;;;;;;;26.30;9.32;;;3.20;99.90;;;;;;5093105;28;20028;-66
2022/01/05 09:07:50;;;;;;;21.77;9.27;;;3.30;99.90;;;;;;5093239;28;20032;-66
2022/01/05 09:10:19;;;;;;;29.63;9.50;;;3.30;99.90;;;;;;5097937;28;20079;-66
2022/01/05 09:12:45;;;;;;;27.48;8.68;;;3.30;99.90;;;;;;5096877;28;20051;-67
2022/01/05 09:15:10;;;;;;;28.50;9.57;;;3.30;99.90;;;;;;5095186;28;20024;-66
2022/01/05 09:17:36;;;;;;;31.02;10.43;;;3.40;99.90;;;;;;5095243;28;20024;-66
2022/01/05 09:20:04;;;;;;;22.92;9.48;;;3.40;99.90;;;;;;5100541;28;20488;-67
2022/01/05 09:22:30;;;;;;;29.90;9.80;;;3.40;99.90;;;;;;5094716;28;20020;-66
2022/01/05 09:24:55;;;;;;;25.60;9.98;;;3.40;99.90;;;;;;5094106;28;20027;-66
2022/01/05 09:27:21;;;;;;;26.73;9.65;;;3.40;99.90;;;;;;5073773;28;20032;-66
2022/01/05 09:29:47;;;;;;;28.63;11.85;;;3.40;99.90;;;;;;5092091;28;20028;-66
2022/01/05 09:32:13;;;;;;;27.40;9.43;;;3.50;99.90;;;;;;5075188;28;20028;-66
2022/01/05 09:34:40;;;;;;;27.23;10.23;;;3.50;99.90;;;;;;5093858;28;20469;-67
2022/01/05 09:37:21;;;;;;;26.58;10.57;;;3.50;99.90;;;;;;5096777;28;20449;-66
2022/01/05 09:42:32;;;;;;;29.58;11.30;;;3.40;99.90;;;;;;5085995;28;20021;-66
2022/01/05 09:44:59;;;;;;;32.10;10.60;;;3.40;99.90;;;;;;5084022;28;20021;-66
2022/01/05 09:50:10;;;;;;;33.53;11.88;;;3.40;99.90;;;;;;5113203;27;20381;-65
2022/01/05 09:52:37;;;;;;;26.90;11.85;;;3.30;99.90;;;;;;5110787;28;20016;-65
2022/01/05 09:55:04;;;;;;;34.90;12.90;;;3.40;99.90;;;;;;5095297;28;20115;-66
2022/01/05 09:57:30;;;;;;;32.42;12.80;;;3.40;99.90;;;;;;5104329;28;20028;-66
2022/01/05 09:59:56;;;;;;;27.65;11.43;;;3.40;99.90;;;;;;5110543;28;20050;-66
2022/01/05 10:02:23;;;;;;;25.30;12.82;;;3.40;99.90;;;;;;5109568;28;20019;-66
2022/01/05 10:04:49;;;;;;;32.53;13.52;;;3.40;99.90;;;;;;5108958;28;20427;-66
2022/01/05 10:07:15;;;;;;;24.75;13.50;;;3.40;99.90;;;;;;5109891;28;20047;-66
2022/01/05 10:09:43;;;;;;;26.58;13.27;;;3.30;99.90;;;;;;5113854;28;20555;-67
2022/01/05 10:12:10;;;;;;;33.30;14.38;;;3.40;99.90;;;;;;5117534;28;20098;-67
2022/01/05 10:14:40;;;;;;;33.58;14.20;;;3.30;99.90;;;;;;5109827;28;20024;-67
2022/01/05 10:17:22;;;;;;;33.78;15.20;;;3.30;99.90;;;;;;5091075;28;20137;-66
2022/01/05 10:19:56;;;;;;;39.10;16.50;;;3.30;99.90;;;;;;5109449;28;20469;-66
2022/01/05 10:22:38;;;;;;;45.75;22.05;;;3.20;99.90;;;;;;5131283;27;20023;-67
2022/01/05 10:25:23;;;;;;;45.15;25.02;;;3.10;99.90;;;;;;5107361;28;20031;-66
2022/01/05 10:27:58;;;;;;;55.00;22.77;;;3.00;99.90;;;;;;5124487;28;20498;-66
2022/01/05 10:30:41;;;;;;;52.88;23.73;;;2.90;99.90;;;;;;5121163;27;20032;-66
2022/01/05 10:33:07;;;;;;;42.95;22.33;;;2.90;99.90;;;;;;5111417;28;20035;-66
2022/01/05 10:35:34;;;;;;;41.50;20.63;;;2.90;99.90;;;;;;5110497;28;20388;-66
2022/01/05 10:38:05;;;;;;;40.40;21.58;;;2.90;99.90;;;;;;5128009;28;20468;-66
2022/01/05 10:40:35;;;;;;;39.50;21.30;;;2.90;99.90;;;;;;5109465;28;20034;-67
2022/01/05 10:43:07;;;;;;;40.75;20.50;;;2.90;99.90;;;;;;5109081;28;20073;-67
2022/01/05 10:45:51;;;;;;;41.95;20.08;;;2.90;99.90;;;;;;5110131;28;20036;-67
2022/01/05 10:48:19;;;;;;;44.83;20.20;;;3.00;99.90;;;;;;5092515;28;20075;-66
2022/01/05 10:50:49;;;;;;;41.65;20.67;;;3.00;99.90;;;;;;5109583;28;20024;-65
2022/01/05 10:53:19;;;;;;;45.97;21.00;;;3.00;99.90;;;;;;5109803;28;20031;-66
2022/01/05 10:55:46;;;;;;;44.38;21.70;;;3.10;99.90;;;;;;5108363;28;20023;-66
2022/01/05 10:58:15;;;;;;;38.30;20.55;;;3.10;99.90;;;;;;5109770;28;20024;-67
2022/01/05 11:00:44;;;;;;;42.20;20.15;;;3.10;99.90;;;;;;5098761;28;20496;-66
2022/01/05 11:03:30;;;;;;;41.83;20.50;;;3.20;99.90;;;;;;5096561;28;20024;-66
2022/01/05 11:06:16;;;;;;;40.30;21.08;;;3.20;99.90;;;;;;5095363;28;20024;-67
2022/01/05 11:09:00;;;;;;;38.03;18.83;;;3.20;99.90;;;;;;5094701;28;20024;-65
2022/01/05 11:11:44;;;;;;;40.45;19.95;;;3.20;99.90;;;;;;5096389;28;20114;-67
2022/01/05 11:14:20;;;;;;;41.60;19.92;;;3.20;99.90;;;;;;5100966;28;20532;-67
2022/01/05 11:16:47;;;;;;;46.83;19.13;;;3.30;99.90;;;;;;5095447;28;20024;-66
2022/01/05 11:22:14;;;;;;;40.55;20.50;;;3.30;99.90;;;;;;5132415;27;20369;-65
2022/01/05 11:24:44;;;;;;;39.53;19.77;;;3.50;99.90;;;;;;5129861;27;20059;-65
2022/01/05 11:27:14;;;;;;;41.75;21.77;;;3.60;99.90;;;;;;5112047;28;20073;-65
2022/01/05 11:29:40;;;;;;;35.90;20.92;;;3.60;99.90;;;;;;5117100;28;20502;-65
2022/01/05 11:32:08;;;;;;;39.78;21.02;;;3.60;99.90;;;;;;5111225;28;20027;-66
2022/01/05 11:34:33;;;;;;;38.80;22.05;;;3.60;99.90;;;;;;5124080;28;20107;-66
2022/01/05 11:37:01;;;;;;;39.92;21.55;;;3.60;99.90;;;;;;5107452;28;20549;-66
2022/01/05 11:39:29;;;;;;;43.03;23.40;;;3.60;99.90;;;;;;5100820;28;20082;-66
2022/01/05 11:41:55;;;;;;;34.40;21.33;;;3.70;99.90;;;;;;5091241;28;20078;-66
2022/01/05 11:44:21;;;;;;;31.92;20.27;;;3.60;99.90;;;;;;5113546;28;20028;-67
2022/01/05 11:46:48;;;;;;;35.55;19.67;;;3.60;99.90;;;;;;5114155;28;20032;-66
2022/01/05 11:49:23;;;;;;;31.88;18.20;;;3.60;99.90;;;;;;5097056;28;20035;-66
2022/01/05 11:51:51;;;;;;;29.75;17.48;;;3.60;99.90;;;;;;5106146;28;20112;-66
2022/01/05 11:54:23;;;;;;;31.10;15.82;;;3.50;99.90;;;;;;5111288;28;20032;-66
2022/01/05 11:56:52;;;;;;;23.40;13.53;;;3.60;99.90;;;;;;5122882;27;20023;-65
2022/01/05 11:59:24;;;;;;;24.58;15.00;;;3.50;99.90;;;;;;5125098;28;20330;-65
2022/01/05 12:02:12;;;;;;;22.77;13.83;;;3.50;99.90;;;;;;5116312;28;20028;-67
2022/01/05 12:04:56;;;;;;;25.48;15.77;;;3.50;99.90;;;;;;5105113;28;20059;-66
2022/01/05 12:07:43;;;;;;;28.27;17.23;;;3.40;99.90;;;;;;5093746;28;20020;-66
2022/01/05 12:10:17;;;;;;;33.05;16.10;;;3.40;99.90;;;;;;5104732;28;20066;-66
2022/01/05 12:13:04;;;;;;;34.30;18.55;;;3.40;99.90;;;;;;5114780;27;20035;-66
2022/01/05 12:15:56;;;;;;;36.15;19.23;;;3.40;99.90;;;;;;5135065;27;20024;-66
2022/01/05 12:18:30;;;;;;;28.48;18.23;;;3.40;99.90;;;;;;5102072;28;20030;-67
2022/01/05 12:20:58;;;;;;;31.35;18.20;;;3.40;99.90;;;;;;5099975;28;20381;-66
2022/01/05 12:23:27;;;;;;;30.88;17.75;;;3.40;99.90;;;;;;5096212;28;20035;-67
2022/01/05 12:28:54;;;;;;;27.25;16.83;;;3.30;99.90;;;;;;5071047;28;20427;-66
2022/01/05 12:32:00;;;;;;;25.60;15.95;;;3.30;99.90;;;;;;5069243;28;20421;-66
2022/01/05 12:34:50;;;;;;;24.25;15.70;;;3.30;99.90;;;;;;5063086;28;20040;-66
2022/01/05 12:37:45;;;;;;;23.83;15.80;;;3.30;99.90;;;;;;5048772;28;20123;-66
2022/01/05 12:40:32;;;;;;;27.13;16.77;;;3.20;99.90;;;;;;5046860;28;20037;-67
2022/01/05 12:45:53;;;;;;;25.20;17.23;;;3.30;99.90;;;;;;5071612;28;20353;-67
2022/01/05 12:53:57;;;;;;;27.95;17.15;;;3.30;99.90;;;;;;5091788;28;20348;-66
2022/01/05 12:56:25;;;;;;;35.70;18.10;;;3.30;99.90;;;;;;5070347;28;20071;-66
2022/01/05 12:58:52;;;;;;;25.00;14.68;;;3.30;99.90;;;;;;5082258;28;20016;-65
2022/01/05 13:01:19;;;;;;;22.40;14.27;;;3.40;99.90;;;;;;5089922;28;20496;-66
2022/01/05 13:03:45;;;;;;;28.15;14.85;;;3.40;99.90;;;;;;5093720;28;20028;-66
2022/01/05 13:06:23;;;;;;;25.13;14.32;;;3.40;99.90;;;;;;5080287;28;20568;-66
2022/01/05 13:08:55;;;;;;;21.33;13.48;;;3.40;99.90;;;;;;5074233;28;20060;-66
2022/01/05 13:11:45;;;;;;;24.42;13.20;;;3.50;99.90;;;;;;5099864;28;20025;-66
2022/01/05 13:14:32;;;;;;;16.08;11.57;;;3.60;99.90;;;;;;5075680;28;20116;-65
2022/01/05 13:17:08;;;;;;;24.85;10.25;;;3.60;99.90;;;;;;5111339;28;20122;-65
2022/01/05 13:19:44;;;;;;;13.82;9.07;;;3.70;99.90;;;;;;5111250;28;20478;-66
2022/01/05 13:22:17;;;;;;;12.80;7.78;;;3.80;99.90;;;;;;5090050;28;20081;-66
2022/01/05 13:25:06;;;;;;;12.95;8.23;;;3.70;99.90;;;;;;5090334;28;20028;-66
2022/01/05 13:27:39;;;;;;;8.88;6.07;;;3.80;99.90;;;;;;5089174;28;20021;-67
2022/01/05 13:30:11;;;;;;;11.60;5.20;;;3.70;99.90;;;;;;5089867;28;20370;-66
2022/01/05 13:32:39;;;;;;;11.82;6.03;;;3.60;99.90;;;;;;5072890;28;20035;-65